Snow/Ice From: 17-12-2017 10:00 Until: 18-12-2017 06:00 warning for: Snow/Ice Level: Yellow info button

Although rather usual in this region, locally or potentially dangerous phenomena are expected. (such as local winds, summer thunderstorms, rising streams or high waves) Be aware and pay attention to the latest weather updates, especially if you carry out activities exposed to weather or close to a stream or shoreline. 


Meteo18 Weather Cam more information Meteo18 Weather Cam


Thunder radar more information blitzortung!


warning for Snow/Ice more information rain snow radar


Visit our other weather sites:

Template documentation
and downloads

And another site



Weather Underground History page Text

Daily Summary for April 7, 2017 Units:  Both    English   Metric
« Previous Day
Next Day »
Daily Weekly Monthly Yearly Custom
  High: Low: Average:
Temperature: 64.4 °F /  18.0 °C 38.5 °F /  3.6 °C 50.7 °F /  10.4 °C
Dew Point: 46.6 °F /  8.1 °C 35.2 °F /  1.8 °C 40.6 °F /  4.8 °C
Humidity: 89 % 47 % 70 %
Wind Speed: 12 mph /  19.3 km/h - 3.8 mph /  6.1 km/h
Wind Gust: 17 mph /  27.4 km/h - -
Wind:- - ESE
Pressure: 30.4 in /  1028.0 hPa 30.2 in /  1023.9 hPa -
Precipitation: 0 in /  0.0 mm    
Historical Graphs
 
 
Tabular Data for April 7, 2017
Time Temperature Dew Point Pressure Wind Wind Speed Wind Gust Humidity Rainfall Rate (Hourly)
00:02 42.6 °F /  5.9 °C 37.2 °F /  2.9 °C 30.4 in /  1028.0 hPa NNW 1 mph /  1.6 km/h 4 mph /  6.4 km/h 81 % 0 in /  0.0 mm
00:07 42.6 °F /  5.9 °C 37.2 °F /  2.9 °C 30.4 in /  1028.0 hPa NNE 2 mph /  3.2 km/h 3 mph /  4.8 km/h 81 % 0 in /  0.0 mm
00:12 42.4 °F /  5.8 °C 37 °F /  2.8 °C 30.4 in /  1028.0 hPa NNE 2 mph /  3.2 km/h 3 mph /  4.8 km/h 81 % 0 in /  0.0 mm
00:17 42.4 °F /  5.8 °C 37.4 °F /  3.0 °C 30.4 in /  1028.0 hPa NNW 2 mph /  3.2 km/h 4 mph /  6.4 km/h 82 % 0 in /  0.0 mm
00:22 42.3 °F /  5.7 °C 36.9 °F /  2.7 °C 30.4 in /  1027.7 hPa NW 1 mph /  1.6 km/h 4 mph /  6.4 km/h 81 % 0 in /  0.0 mm
00:27 42.3 °F /  5.7 °C 37.2 °F /  2.9 °C 30.4 in /  1027.7 hPa Calm   4 mph /  6.4 km/h 82 % 0 in /  0.0 mm
00:32 42.1 °F /  5.6 °C 37 °F /  2.8 °C 30.4 in /  1027.7 hPa Calm   3 mph /  4.8 km/h 82 % 0 in /  0.0 mm
00:37 42.1 °F /  5.6 °C 37 °F /  2.8 °C 30.4 in /  1027.7 hPa NNW 2 mph /  3.2 km/h 3 mph /  4.8 km/h 82 % 0 in /  0.0 mm
00:47 41.9 °F /  5.5 °C 37 °F /  2.8 °C 30.4 in /  1027.7 hPa NNW 1 mph /  1.6 km/h 3 mph /  4.8 km/h 83 % 0 in /  0.0 mm
00:52 42.1 °F /  5.6 °C 37 °F /  2.8 °C 30.4 in /  1027.7 hPa NW 2 mph /  3.2 km/h 3 mph /  4.8 km/h 82 % 0 in /  0.0 mm
00:57 42.1 °F /  5.6 °C 37.2 °F /  2.9 °C 30.4 in /  1027.7 hPa NW 1 mph /  1.6 km/h 3 mph /  4.8 km/h 83 % 0 in /  0.0 mm
01:02 42.1 °F /  5.6 °C 37 °F /  2.8 °C 30.4 in /  1027.7 hPa NW 1 mph /  1.6 km/h 3 mph /  4.8 km/h 82 % 0 in /  0.0 mm
01:07 42.1 °F /  5.6 °C 37 °F /  2.8 °C 30.4 in /  1027.7 hPa NW 1 mph /  1.6 km/h 3 mph /  4.8 km/h 82 % 0 in /  0.0 mm
01:12 42.1 °F /  5.6 °C 37 °F /  2.8 °C 30.4 in /  1027.7 hPa NW 2 mph /  3.2 km/h 3 mph /  4.8 km/h 82 % 0 in /  0.0 mm
01:17 42.1 °F /  5.6 °C 37 °F /  2.8 °C 30.4 in /  1027.7 hPa NNW 1 mph /  1.6 km/h 5 mph /  8.0 km/h 82 % 0 in /  0.0 mm
01:22 42.1 °F /  5.6 °C 37.2 °F /  2.9 °C 30.4 in /  1027.7 hPa NW 2 mph /  3.2 km/h 5 mph /  8.0 km/h 83 % 0 in /  0.0 mm
01:27 42.1 °F /  5.6 °C 37.2 °F /  2.9 °C 30.4 in /  1027.7 hPa NNW 1 mph /  1.6 km/h 5 mph /  8.0 km/h 83 % 0 in /  0.0 mm
01:32 41.9 °F /  5.5 °C 37 °F /  2.8 °C 30.4 in /  1027.7 hPa NW 3 mph /  4.8 km/h 5 mph /  8.0 km/h 83 % 0 in /  0.0 mm
01:37 41.7 °F /  5.4 °C 36.9 °F /  2.7 °C 30.4 in /  1027.7 hPa WNW 2 mph /  3.2 km/h 5 mph /  8.0 km/h 83 % 0 in /  0.0 mm
01:42 41.5 °F /  5.3 °C 36.7 °F /  2.6 °C 30.4 in /  1027.7 hPa NNW 2 mph /  3.2 km/h 4 mph /  6.4 km/h 83 % 0 in /  0.0 mm
01:47 41.5 °F /  5.3 °C 36.7 °F /  2.6 °C 30.4 in /  1027.7 hPa NNW 1 mph /  1.6 km/h 4 mph /  6.4 km/h 83 % 0 in /  0.0 mm
01:52 41.5 °F /  5.3 °C 37 °F /  2.8 °C 30.4 in /  1027.7 hPa NNW 2 mph /  3.2 km/h 4 mph /  6.4 km/h 84 % 0 in /  0.0 mm
01:57 41.4 °F /  5.2 °C 36.9 °F /  2.7 °C 30.4 in /  1027.7 hPa North 1 mph /  1.6 km/h 4 mph /  6.4 km/h 84 % 0 in /  0.0 mm
02:02 41.4 °F /  5.2 °C 36.9 °F /  2.7 °C 30.3 in /  1027.3 hPa NW 3 mph /  4.8 km/h 5 mph /  8.0 km/h 84 % 0 in /  0.0 mm
02:07 41.4 °F /  5.2 °C 36.9 °F /  2.7 °C 30.3 in /  1027.3 hPa NW 2 mph /  3.2 km/h 5 mph /  8.0 km/h 84 % 0 in /  0.0 mm
02:12 41.2 °F /  5.1 °C 36.7 °F /  2.6 °C 30.3 in /  1027.3 hPa NW 1 mph /  1.6 km/h 5 mph /  8.0 km/h 84 % 0 in /  0.0 mm
02:17 41.2 °F /  5.1 °C 36.7 °F /  2.6 °C 30.3 in /  1027.3 hPa NW 3 mph /  4.8 km/h 5 mph /  8.0 km/h 84 % 0 in /  0.0 mm
02:22 41.2 °F /  5.1 °C 37 °F /  2.8 °C 30.3 in /  1027.3 hPa NNW 1 mph /  1.6 km/h 5 mph /  8.0 km/h 85 % 0 in /  0.0 mm
02:27 41.2 °F /  5.1 °C 37 °F /  2.8 °C 30.3 in /  1027.0 hPa NW 1 mph /  1.6 km/h 4 mph /  6.4 km/h 85 % 0 in /  0.0 mm
02:32 41.2 °F /  5.1 °C 37 °F /  2.8 °C 30.3 in /  1027.3 hPa NNW 3 mph /  4.8 km/h 4 mph /  6.4 km/h 85 % 0 in /  0.0 mm
02:37 41 °F /  5.0 °C 36.9 °F /  2.7 °C 30.3 in /  1027.0 hPa NNW 1 mph /  1.6 km/h 4 mph /  6.4 km/h 85 % 0 in /  0.0 mm
02:42 40.8 °F /  4.9 °C 36.7 °F /  2.6 °C 30.3 in /  1027.0 hPa North 2 mph /  3.2 km/h 6 mph /  9.7 km/h 85 % 0 in /  0.0 mm
02:47 40.8 °F /  4.9 °C 36.7 °F /  2.6 °C 30.3 in /  1027.0 hPa NE 2 mph /  3.2 km/h 6 mph /  9.7 km/h 85 % 0 in /  0.0 mm
02:52 40.8 °F /  4.9 °C 36.7 °F /  2.6 °C 30.3 in /  1027.0 hPa NNW 2 mph /  3.2 km/h 6 mph /  9.7 km/h 85 % 0 in /  0.0 mm
02:57 40.8 °F /  4.9 °C 36.7 °F /  2.6 °C 30.3 in /  1027.0 hPa NW 2 mph /  3.2 km/h 6 mph /  9.7 km/h 85 % 0 in /  0.0 mm
03:02 40.8 °F /  4.9 °C 36.7 °F /  2.6 °C 30.3 in /  1027.0 hPa NNE 3 mph /  4.8 km/h 5 mph /  8.0 km/h 85 % 0 in /  0.0 mm
03:07 40.8 °F /  4.9 °C 36.7 °F /  2.6 °C 30.3 in /  1027.0 hPa North 2 mph /  3.2 km/h 7 mph /  11.3 km/h 85 % 0 in /  0.0 mm
03:12 40.8 °F /  4.9 °C 36.7 °F /  2.6 °C 30.3 in /  1026.6 hPa NNW 2 mph /  3.2 km/h 7 mph /  11.3 km/h 85 % 0 in /  0.0 mm
03:17 40.8 °F /  4.9 °C 36.7 °F /  2.6 °C 30.3 in /  1026.6 hPa NNW 2 mph /  3.2 km/h 7 mph /  11.3 km/h 85 % 0 in /  0.0 mm
03:22 40.6 °F /  4.8 °C 36.5 °F /  2.5 °C 30.3 in /  1026.6 hPa NNE 3 mph /  4.8 km/h 6 mph /  9.7 km/h 85 % 0 in /  0.0 mm
03:27 40.6 °F /  4.8 °C 36.5 °F /  2.5 °C 30.3 in /  1026.6 hPa North 1 mph /  1.6 km/h 6 mph /  9.7 km/h 85 % 0 in /  0.0 mm
03:32 40.5 °F /  4.7 °C 36.7 °F /  2.6 °C 30.3 in /  1026.6 hPa NNW 2 mph /  3.2 km/h 4 mph /  6.4 km/h 86 % 0 in /  0.0 mm
03:37 40.5 °F /  4.7 °C 36.7 °F /  2.6 °C 30.3 in /  1026.6 hPa NNW 2 mph /  3.2 km/h 4 mph /  6.4 km/h 86 % 0 in /  0.0 mm
03:42 40.5 °F /  4.7 °C 36.7 °F /  2.6 °C 30.3 in /  1026.6 hPa North 1 mph /  1.6 km/h 3 mph /  4.8 km/h 86 % 0 in /  0.0 mm
03:47 40.5 °F /  4.7 °C 36.7 °F /  2.6 °C 30.3 in /  1026.6 hPa North 1 mph /  1.6 km/h 3 mph /  4.8 km/h 86 % 0 in /  0.0 mm
03:52 40.3 °F /  4.6 °C 36.5 °F /  2.5 °C 30.3 in /  1026.6 hPa North 2 mph /  3.2 km/h 3 mph /  4.8 km/h 86 % 0 in /  0.0 mm
03:57 40.3 °F /  4.6 °C 36.5 °F /  2.5 °C 30.3 in /  1026.6 hPa North 2 mph /  3.2 km/h 3 mph /  4.8 km/h 86 % 0 in /  0.0 mm
04:02 40.5 °F /  4.7 °C 36.7 °F /  2.6 °C 30.3 in /  1026.6 hPa Calm   6 mph /  9.7 km/h 86 % 0 in /  0.0 mm
04:07 40.5 °F /  4.7 °C 36.7 °F /  2.6 °C 30.3 in /  1026.6 hPa NW 2 mph /  3.2 km/h 6 mph /  9.7 km/h 86 % 0 in /  0.0 mm
04:12 40.3 °F /  4.6 °C 36.5 °F /  2.5 °C 30.3 in /  1026.6 hPa North 2 mph /  3.2 km/h 6 mph /  9.7 km/h 86 % 0 in /  0.0 mm
04:17 40.3 °F /  4.6 °C 36.5 °F /  2.5 °C 30.3 in /  1026.6 hPa NNW 3 mph /  4.8 km/h 4 mph /  6.4 km/h 86 % 0 in /  0.0 mm
04:22 40.3 °F /  4.6 °C 36.5 °F /  2.5 °C 30.3 in /  1026.6 hPa North 2 mph /  3.2 km/h 5 mph /  8.0 km/h 86 % 0 in /  0.0 mm
04:27 40.3 °F /  4.6 °C 36.5 °F /  2.5 °C 30.3 in /  1026.6 hPa North 4 mph /  6.4 km/h 5 mph /  8.0 km/h 86 % 0 in /  0.0 mm
04:32 39.9 °F /  4.4 °C 36.1 °F /  2.3 °C 30.3 in /  1026.3 hPa North 3 mph /  4.8 km/h 5 mph /  8.0 km/h 86 % 0 in /  0.0 mm
04:37 39.9 °F /  4.4 °C 36.1 °F /  2.3 °C 30.3 in /  1026.3 hPa North 3 mph /  4.8 km/h 6 mph /  9.7 km/h 86 % 0 in /  0.0 mm
04:42 39.7 °F /  4.3 °C 36.1 °F /  2.3 °C 30.3 in /  1026.3 hPa North 2 mph /  3.2 km/h 6 mph /  9.7 km/h 87 % 0 in /  0.0 mm
04:52 39.6 °F /  4.2 °C 36 °F /  2.2 °C 30.3 in /  1026.3 hPa NNW 2 mph /  3.2 km/h 6 mph /  9.7 km/h 87 % 0 in /  0.0 mm
04:57 39.6 °F /  4.2 °C 36 °F /  2.2 °C 30.3 in /  1026.3 hPa North 3 mph /  4.8 km/h 5 mph /  8.0 km/h 87 % 0 in /  0.0 mm
05:02 39.6 °F /  4.2 °C 36 °F /  2.2 °C 30.3 in /  1026.3 hPa North 2 mph /  3.2 km/h 5 mph /  8.0 km/h 87 % 0 in /  0.0 mm
05:12 39.6 °F /  4.2 °C 36 °F /  2.2 °C 30.3 in /  1026.3 hPa NNW 2 mph /  3.2 km/h 6 mph /  9.7 km/h 87 % 0 in /  0.0 mm
05:17 39.6 °F /  4.2 °C 36 °F /  2.2 °C 30.3 in /  1026.3 hPa NNE 3 mph /  4.8 km/h 6 mph /  9.7 km/h 87 % 0 in /  0.0 mm
05:22 39.6 °F /  4.2 °C 36 °F /  2.2 °C 30.3 in /  1026.3 hPa Calm   6 mph /  9.7 km/h 87 % 0 in /  0.0 mm
05:27 39.6 °F /  4.2 °C 36 °F /  2.2 °C 30.3 in /  1026.3 hPa NNE 2 mph /  3.2 km/h 4 mph /  6.4 km/h 87 % 0 in /  0.0 mm
05:32 39.7 °F /  4.3 °C 36.1 °F /  2.3 °C 30.3 in /  1026.3 hPa NW 4 mph /  6.4 km/h 5 mph /  8.0 km/h 87 % 0 in /  0.0 mm
05:37 39.7 °F /  4.3 °C 36.1 °F /  2.3 °C 30.3 in /  1026.3 hPa NNE 4 mph /  6.4 km/h 5 mph /  8.0 km/h 87 % 0 in /  0.0 mm
05:42 39.7 °F /  4.3 °C 36 °F /  2.2 °C 30.3 in /  1026.3 hPa NNE 2 mph /  3.2 km/h 7 mph /  11.3 km/h 86 % 0 in /  0.0 mm
05:47 39.6 °F /  4.2 °C 36 °F /  2.2 °C 30.3 in /  1026.3 hPa North 2 mph /  3.2 km/h 7 mph /  11.3 km/h 87 % 0 in /  0.0 mm
05:52 39.4 °F /  4.1 °C 35.8 °F /  2.1 °C 30.3 in /  1026.3 hPa North 2 mph /  3.2 km/h 7 mph /  11.3 km/h 87 % 0 in /  0.0 mm
05:57 39 °F /  3.9 °C 35.4 °F /  1.9 °C 30.3 in /  1026.3 hPa NNE 3 mph /  4.8 km/h 7 mph /  11.3 km/h 87 % 0 in /  0.0 mm
06:02 39 °F /  3.9 °C 35.4 °F /  1.9 °C 30.3 in /  1026.3 hPa North 4 mph /  6.4 km/h 7 mph /  11.3 km/h 87 % 0 in /  0.0 mm
06:07 38.8 °F /  3.8 °C 35.2 °F /  1.8 °C 30.3 in /  1026.0 hPa North 2 mph /  3.2 km/h 7 mph /  11.3 km/h 87 % 0 in /  0.0 mm
06:12 38.8 °F /  3.8 °C 35.2 °F /  1.8 °C 30.3 in /  1026.3 hPa NE 3 mph /  4.8 km/h 5 mph /  8.0 km/h 87 % 0 in /  0.0 mm
06:17 38.7 °F /  3.7 °C 35.4 °F /  1.9 °C 30.3 in /  1026.3 hPa North 5 mph /  8.0 km/h 5 mph /  8.0 km/h 88 % 0 in /  0.0 mm
06:22 38.8 °F /  3.8 °C 35.6 °F /  2.0 °C 30.3 in /  1026.3 hPa North 4 mph /  6.4 km/h 5 mph /  8.0 km/h 88 % 0 in /  0.0 mm
06:27 39 °F /  3.9 °C 35.8 °F /  2.1 °C 30.3 in /  1026.3 hPa North 1 mph /  1.6 km/h 5 mph /  8.0 km/h 88 % 0 in /  0.0 mm
06:32 39 °F /  3.9 °C 35.8 °F /  2.1 °C 30.3 in /  1026.0 hPa NNE 2 mph /  3.2 km/h 7 mph /  11.3 km/h 88 % 0 in /  0.0 mm
06:37 38.8 °F /  3.8 °C 35.6 °F /  2.0 °C 30.3 in /  1026.0 hPa North 3 mph /  4.8 km/h 7 mph /  11.3 km/h 88 % 0 in /  0.0 mm
06:42 38.8 °F /  3.8 °C 35.6 °F /  2.0 °C 30.3 in /  1026.0 hPa Calm   7 mph /  11.3 km/h 88 % 0 in /  0.0 mm
06:47 38.7 °F /  3.7 °C 35.4 °F /  1.9 °C 30.3 in /  1026.0 hPa NNW 4 mph /  6.4 km/h 7 mph /  11.3 km/h 88 % 0 in /  0.0 mm
06:57 38.5 °F /  3.6 °C 35.2 °F /  1.8 °C 30.3 in /  1026.0 hPa NNE 2 mph /  3.2 km/h 6 mph /  9.7 km/h 88 % 0 in /  0.0 mm
07:02 38.5 °F /  3.6 °C 35.6 °F /  2.0 °C 30.3 in /  1026.0 hPa NW 2 mph /  3.2 km/h 5 mph /  8.0 km/h 89 % 0 in /  0.0 mm
07:12 38.5 °F /  3.6 °C 35.6 °F /  2.0 °C 30.3 in /  1025.6 hPa Calm   6 mph /  9.7 km/h 89 % 0 in /  0.0 mm
07:17 38.5 °F /  3.6 °C 35.6 °F /  2.0 °C 30.3 in /  1026.0 hPa NNE 3 mph /  4.8 km/h 6 mph /  9.7 km/h 89 % 0 in /  0.0 mm
07:22 38.5 °F /  3.6 °C 35.6 °F /  2.0 °C 30.3 in /  1026.0 hPa NNW 6 mph /  9.7 km/h 6 mph /  9.7 km/h 89 % 0 in /  0.0 mm
07:32 38.8 °F /  3.8 °C 35.6 °F /  2.0 °C 30.3 in /  1026.0 hPa NNE 3 mph /  4.8 km/h 8 mph /  12.9 km/h 88 % 0 in /  0.0 mm
07:37 38.8 °F /  3.8 °C 35.6 °F /  2.0 °C 30.3 in /  1026.0 hPa North 2 mph /  3.2 km/h 8 mph /  12.9 km/h 88 % 0 in /  0.0 mm
07:42 38.8 °F /  3.8 °C 35.6 °F /  2.0 °C 30.3 in /  1026.0 hPa NNE 3 mph /  4.8 km/h 5 mph /  8.0 km/h 88 % 0 in /  0.0 mm
07:47 39 °F /  3.9 °C 35.8 °F /  2.1 °C 30.3 in /  1026.0 hPa North 2 mph /  3.2 km/h 5 mph /  8.0 km/h 88 % 0 in /  0.0 mm
07:57 39.6 °F /  4.2 °C 36.3 °F /  2.4 °C 30.3 in /  1026.0 hPa NNE 2 mph /  3.2 km/h 5 mph /  8.0 km/h 88 % 0 in /  0.0 mm
08:02 39.7 °F /  4.3 °C 36.1 °F /  2.3 °C 30.3 in /  1026.0 hPa NE 2 mph /  3.2 km/h 5 mph /  8.0 km/h 87 % 0 in /  0.0 mm
08:07 39.9 °F /  4.4 °C 36.3 °F /  2.4 °C 30.3 in /  1026.0 hPa NNE 1 mph /  1.6 km/h 8 mph /  12.9 km/h 87 % 0 in /  0.0 mm
08:12 40.3 °F /  4.6 °C 36.7 °F /  2.6 °C 30.3 in /  1026.0 hPa NNW 2 mph /  3.2 km/h 8 mph /  12.9 km/h 87 % 0 in /  0.0 mm
08:17 40.3 °F /  4.6 °C 36.7 °F /  2.6 °C 30.3 in /  1026.0 hPa NNE 4 mph /  6.4 km/h 8 mph /  12.9 km/h 87 % 0 in /  0.0 mm
08:22 40.6 °F /  4.8 °C 37 °F /  2.8 °C 30.3 in /  1026.0 hPa NE 2 mph /  3.2 km/h 7 mph /  11.3 km/h 87 % 0 in /  0.0 mm
08:32 41 °F /  5.0 °C 37.2 °F /  2.9 °C 30.3 in /  1026.3 hPa NNW 3 mph /  4.8 km/h 7 mph /  11.3 km/h 86 % 0 in /  0.0 mm
08:37 41.4 °F /  5.2 °C 37.6 °F /  3.1 °C 30.3 in /  1026.0 hPa NE 3 mph /  4.8 km/h 7 mph /  11.3 km/h 86 % 0 in /  0.0 mm
08:42 41.5 °F /  5.3 °C 37.4 °F /  3.0 °C 30.3 in /  1026.3 hPa NW 2 mph /  3.2 km/h 6 mph /  9.7 km/h 85 % 0 in /  0.0 mm
08:47 41.7 °F /  5.4 °C 37.2 °F /  2.9 °C 30.3 in /  1026.3 hPa NE 6 mph /  9.7 km/h 8 mph /  12.9 km/h 84 % 0 in /  0.0 mm
08:52 42.1 °F /  5.6 °C 37.2 °F /  2.9 °C 30.3 in /  1026.3 hPa NNE 3 mph /  4.8 km/h 8 mph /  12.9 km/h 83 % 0 in /  0.0 mm
08:57 42.4 °F /  5.8 °C 37.6 °F /  3.1 °C 30.3 in /  1026.3 hPa ENE 1 mph /  1.6 km/h 8 mph /  12.9 km/h 83 % 0 in /  0.0 mm
09:02 42.6 °F /  5.9 °C 37.6 °F /  3.1 °C 30.3 in /  1026.6 hPa NNE 5 mph /  8.0 km/h 8 mph /  12.9 km/h 82 % 0 in /  0.0 mm
09:12 43.3 °F /  6.3 °C 38.3 °F /  3.5 °C 30.3 in /  1026.6 hPa NE 2 mph /  3.2 km/h 10 mph /  16.1 km/h 82 % 0 in /  0.0 mm
09:17 43.5 °F /  6.4 °C 38.1 °F /  3.4 °C 30.3 in /  1026.6 hPa ENE 4 mph /  6.4 km/h 10 mph /  16.1 km/h 81 % 0 in /  0.0 mm
09:22 43.7 °F /  6.5 °C 37.9 °F /  3.3 °C 30.3 in /  1026.6 hPa NNE 7 mph /  11.3 km/h 9 mph /  14.5 km/h 80 % 0 in /  0.0 mm
09:27 44.1 °F /  6.7 °C 37.9 °F /  3.3 °C 30.3 in /  1026.6 hPa NNE 8 mph /  12.9 km/h 10 mph /  16.1 km/h 79 % 0 in /  0.0 mm
09:32 44.2 °F /  6.8 °C 38.5 °F /  3.6 °C 30.3 in /  1026.6 hPa NE 4 mph /  6.4 km/h 10 mph /  16.1 km/h 80 % 0 in /  0.0 mm
09:37 44.4 °F /  6.9 °C 38.3 °F /  3.5 °C 30.3 in /  1026.6 hPa NNE 6 mph /  9.7 km/h 10 mph /  16.1 km/h 79 % 0 in /  0.0 mm
09:42 44.6 °F /  7.0 °C 38.5 °F /  3.6 °C 30.3 in /  1026.6 hPa NE 5 mph /  8.0 km/h 9 mph /  14.5 km/h 79 % 0 in /  0.0 mm
09:47 45 °F /  7.2 °C 38.5 °F /  3.6 °C 30.3 in /  1026.6 hPa NNE 6 mph /  9.7 km/h 9 mph /  14.5 km/h 78 % 0 in /  0.0 mm
09:52 45.1 °F /  7.3 °C 38.7 °F /  3.7 °C 30.3 in /  1026.6 hPa ENE 1 mph /  1.6 km/h 8 mph /  12.9 km/h 78 % 0 in /  0.0 mm
09:57 45.5 °F /  7.5 °C 38.7 °F /  3.7 °C 30.3 in /  1027.0 hPa NE 5 mph /  8.0 km/h 8 mph /  12.9 km/h 77 % 0 in /  0.0 mm
10:02 45.9 °F /  7.7 °C 39 °F /  3.9 °C 30.3 in /  1027.0 hPa NE 7 mph /  11.3 km/h 10 mph /  16.1 km/h 77 % 0 in /  0.0 mm
10:12 46.6 °F /  8.1 °C 39 °F /  3.9 °C 30.3 in /  1026.6 hPa NNE 7 mph /  11.3 km/h 10 mph /  16.1 km/h 75 % 0 in /  0.0 mm
10:17 46.6 °F /  8.1 °C 39 °F /  3.9 °C 30.3 in /  1026.6 hPa NNE 4 mph /  6.4 km/h 11 mph /  17.7 km/h 75 % 0 in /  0.0 mm
10:22 47.1 °F /  8.4 °C 39.2 °F /  4.0 °C 30.3 in /  1026.6 hPa NE 7 mph /  11.3 km/h 13 mph /  20.9 km/h 74 % 0 in /  0.0 mm
10:32 47.8 °F /  8.8 °C 39.2 °F /  4.0 °C 30.3 in /  1026.6 hPa NE 3 mph /  4.8 km/h 13 mph /  20.9 km/h 72 % 0 in /  0.0 mm
10:42 48.9 °F /  9.4 °C 39.9 °F /  4.4 °C 30.3 in /  1026.6 hPa East 1 mph /  1.6 km/h 11 mph /  17.7 km/h 71 % 0 in /  0.0 mm
10:47 49.1 °F /  9.5 °C 40.1 °F /  4.5 °C 30.3 in /  1026.6 hPa ENE 4 mph /  6.4 km/h 10 mph /  16.1 km/h 71 % 0 in /  0.0 mm
10:52 48.9 °F /  9.4 °C 39.2 °F /  4.0 °C 30.3 in /  1026.6 hPa NE 5 mph /  8.0 km/h 9 mph /  14.5 km/h 69 % 0 in /  0.0 mm
10:57 49.3 °F /  9.6 °C 39.9 °F /  4.4 °C 30.3 in /  1026.6 hPa North 6 mph /  9.7 km/h 11 mph /  17.7 km/h 70 % 0 in /  0.0 mm
11:02 49.6 °F /  9.8 °C 39.6 °F /  4.2 °C 30.3 in /  1027.0 hPa NE 9 mph /  14.5 km/h 11 mph /  17.7 km/h 68 % 0 in /  0.0 mm
11:07 50.2 °F /  10.1 °C 40.5 °F /  4.7 °C 30.3 in /  1027.0 hPa NE 4 mph /  6.4 km/h 11 mph /  17.7 km/h 69 % 0 in /  0.0 mm
11:12 50.2 °F /  10.1 °C 39.2 °F /  4.0 °C 30.3 in /  1027.0 hPa NE 8 mph /  12.9 km/h 11 mph /  17.7 km/h 66 % 0 in /  0.0 mm
11:17 50.4 °F /  10.2 °C 39.4 °F /  4.1 °C 30.3 in /  1027.0 hPa ENE 2 mph /  3.2 km/h 11 mph /  17.7 km/h 66 % 0 in /  0.0 mm
11:22 50.5 °F /  10.3 °C 39.6 °F /  4.2 °C 30.3 in /  1027.0 hPa NNE 5 mph /  8.0 km/h 11 mph /  17.7 km/h 66 % 0 in /  0.0 mm
11:27 50.9 °F /  10.5 °C 40.3 °F /  4.6 °C 30.3 in /  1027.0 hPa North 5 mph /  8.0 km/h 11 mph /  17.7 km/h 67 % 0 in /  0.0 mm
11:32 51.1 °F /  10.6 °C 39.7 °F /  4.3 °C 30.3 in /  1027.0 hPa NNE 6 mph /  9.7 km/h 10 mph /  16.1 km/h 65 % 0 in /  0.0 mm
11:37 51.4 °F /  10.8 °C 40.1 °F /  4.5 °C 30.3 in /  1027.0 hPa ENE 8 mph /  12.9 km/h 12 mph /  19.3 km/h 65 % 0 in /  0.0 mm
11:42 52 °F /  11.1 °C 39.7 °F /  4.3 °C 30.3 in /  1027.0 hPa NNE 5 mph /  8.0 km/h 12 mph /  19.3 km/h 63 % 0 in /  0.0 mm
11:47 52.2 °F /  11.2 °C 39.9 °F /  4.4 °C 30.3 in /  1026.6 hPa NNE 5 mph /  8.0 km/h 10 mph /  16.1 km/h 63 % 0 in /  0.0 mm
11:52 52.3 °F /  11.3 °C 40.5 °F /  4.7 °C 30.3 in /  1026.6 hPa East 6 mph /  9.7 km/h 10 mph /  16.1 km/h 64 % 0 in /  0.0 mm
11:57 52.9 °F /  11.6 °C 41 °F /  5.0 °C 30.3 in /  1026.6 hPa East 3 mph /  4.8 km/h 10 mph /  16.1 km/h 64 % 0 in /  0.0 mm
12:02 53.4 °F /  11.9 °C 41.2 °F /  5.1 °C 30.3 in /  1026.6 hPa ENE 3 mph /  4.8 km/h 9 mph /  14.5 km/h 63 % 0 in /  0.0 mm
12:07 53.2 °F /  11.8 °C 39.7 °F /  4.3 °C 30.3 in /  1026.6 hPa NNW 3 mph /  4.8 km/h 10 mph /  16.1 km/h 60 % 0 in /  0.0 mm
12:12 53.8 °F /  12.1 °C 40.6 °F /  4.8 °C 30.3 in /  1026.6 hPa NNW 8 mph /  12.9 km/h 10 mph /  16.1 km/h 61 % 0 in /  0.0 mm
12:17 54 °F /  12.2 °C 39.9 °F /  4.4 °C 30.3 in /  1026.6 hPa ENE 6 mph /  9.7 km/h 13 mph /  20.9 km/h 59 % 0 in /  0.0 mm
12:22 54 °F /  12.2 °C 39.6 °F /  4.2 °C 30.3 in /  1026.6 hPa NNE 10 mph /  16.1 km/h 13 mph /  20.9 km/h 58 % 0 in /  0.0 mm
12:27 54 °F /  12.2 °C 39.9 °F /  4.4 °C 30.3 in /  1026.6 hPa ENE 5 mph /  8.0 km/h 13 mph /  20.9 km/h 59 % 0 in /  0.0 mm
12:32 54.5 °F /  12.5 °C 40.1 °F /  4.5 °C 30.3 in /  1026.6 hPa NE 6 mph /  9.7 km/h 13 mph /  20.9 km/h 58 % 0 in /  0.0 mm
12:37 54.9 °F /  12.7 °C 39.9 °F /  4.4 °C 30.3 in /  1026.6 hPa NE 5 mph /  8.0 km/h 11 mph /  17.7 km/h 57 % 0 in /  0.0 mm
12:42 54.7 °F /  12.6 °C 39.7 °F /  4.3 °C 30.3 in /  1026.6 hPa East 4 mph /  6.4 km/h 15 mph /  24.1 km/h 57 % 0 in /  0.0 mm
12:47 55.2 °F /  12.9 °C 40.3 °F /  4.6 °C 30.3 in /  1026.6 hPa NE 4 mph /  6.4 km/h 17 mph /  27.4 km/h 57 % 0 in /  0.0 mm
12:52 55.6 °F /  13.1 °C 39.7 °F /  4.3 °C 30.3 in /  1026.6 hPa ENE 5 mph /  8.0 km/h 17 mph /  27.4 km/h 55 % 0 in /  0.0 mm
12:57 55.8 °F /  13.2 °C 40.8 °F /  4.9 °C 30.3 in /  1026.6 hPa ENE 6 mph /  9.7 km/h 14 mph /  22.5 km/h 57 % 0 in /  0.0 mm
13:02 55.8 °F /  13.2 °C 39.9 °F /  4.4 °C 30.3 in /  1026.6 hPa NE 7 mph /  11.3 km/h 14 mph /  22.5 km/h 55 % 0 in /  0.0 mm
13:07 56.5 °F /  13.6 °C 41 °F /  5.0 °C 30.3 in /  1026.6 hPa NE 5 mph /  8.0 km/h 16 mph /  25.7 km/h 56 % 0 in /  0.0 mm
13:12 56.8 °F /  13.8 °C 42.3 °F /  5.7 °C 30.3 in /  1026.3 hPa NE 4 mph /  6.4 km/h 16 mph /  25.7 km/h 58 % 0 in /  0.0 mm
13:17 57.6 °F /  14.2 °C 41.5 °F /  5.3 °C 30.3 in /  1026.3 hPa East 9 mph /  14.5 km/h 14 mph /  22.5 km/h 55 % 0 in /  0.0 mm
13:22 57.6 °F /  14.2 °C 41 °F /  5.0 °C 30.3 in /  1026.3 hPa ENE 4 mph /  6.4 km/h 11 mph /  17.7 km/h 54 % 0 in /  0.0 mm
13:27 57.7 °F /  14.3 °C 41.7 °F /  5.4 °C 30.3 in /  1026.3 hPa NNE 4 mph /  6.4 km/h 11 mph /  17.7 km/h 55 % 0 in /  0.0 mm
13:32 57.7 °F /  14.3 °C 42.6 °F /  5.9 °C 30.3 in /  1026.3 hPa NE 3 mph /  4.8 km/h 11 mph /  17.7 km/h 57 % 0 in /  0.0 mm
13:37 57.9 °F /  14.4 °C 41.4 °F /  5.2 °C 30.3 in /  1026.3 hPa NE 5 mph /  8.0 km/h 13 mph /  20.9 km/h 54 % 0 in /  0.0 mm
13:42 57.9 °F /  14.4 °C 41.9 °F /  5.5 °C 30.3 in /  1026.0 hPa North 2 mph /  3.2 km/h 13 mph /  20.9 km/h 55 % 0 in /  0.0 mm
13:47 58.5 °F /  14.7 °C 43.3 °F /  6.3 °C 30.3 in /  1026.0 hPa ENE 7 mph /  11.3 km/h 12 mph /  19.3 km/h 57 % 0 in /  0.0 mm
13:52 58.6 °F /  14.8 °C 42.4 °F /  5.8 °C 30.3 in /  1026.0 hPa NNE 9 mph /  14.5 km/h 10 mph /  16.1 km/h 55 % 0 in /  0.0 mm
13:57 58.6 °F /  14.8 °C 41.5 °F /  5.3 °C 30.3 in /  1026.0 hPa NE 4 mph /  6.4 km/h 11 mph /  17.7 km/h 53 % 0 in /  0.0 mm
14:02 58.8 °F /  14.9 °C 42.6 °F /  5.9 °C 30.3 in /  1026.0 hPa North 3 mph /  4.8 km/h 15 mph /  24.1 km/h 55 % 0 in /  0.0 mm
14:07 59.5 °F /  15.3 °C 42.4 °F /  5.8 °C 30.3 in /  1026.0 hPa ENE 4 mph /  6.4 km/h 15 mph /  24.1 km/h 53 % 0 in /  0.0 mm
14:12 59.9 °F /  15.5 °C 42.8 °F /  6.0 °C 30.3 in /  1026.0 hPa NE 6 mph /  9.7 km/h 15 mph /  24.1 km/h 53 % 0 in /  0.0 mm
14:17 59.4 °F /  15.2 °C 41.7 °F /  5.4 °C 30.3 in /  1026.0 hPa NE 5 mph /  8.0 km/h 13 mph /  20.9 km/h 52 % 0 in /  0.0 mm
14:22 59.7 °F /  15.4 °C 43 °F /  6.1 °C 30.3 in /  1026.0 hPa ESE 3 mph /  4.8 km/h 13 mph /  20.9 km/h 54 % 0 in /  0.0 mm
14:27 59.7 °F /  15.4 °C 42.6 °F /  5.9 °C 30.3 in /  1026.0 hPa ENE 9 mph /  14.5 km/h 13 mph /  20.9 km/h 53 % 0 in /  0.0 mm
14:32 60.1 °F /  15.6 °C 43 °F /  6.1 °C 30.3 in /  1026.0 hPa ENE 6 mph /  9.7 km/h 13 mph /  20.9 km/h 53 % 0 in /  0.0 mm
14:37 60.4 °F /  15.8 °C 43.7 °F /  6.5 °C 30.3 in /  1026.0 hPa NE 6 mph /  9.7 km/h 13 mph /  20.9 km/h 54 % 0 in /  0.0 mm
14:42 61 °F /  16.1 °C 44.2 °F /  6.8 °C 30.3 in /  1025.6 hPa NE 7 mph /  11.3 km/h 11 mph /  17.7 km/h 54 % 0 in /  0.0 mm
14:47 60.6 °F /  15.9 °C 43.3 °F /  6.3 °C 30.3 in /  1025.6 hPa East 5 mph /  8.0 km/h 10 mph /  16.1 km/h 53 % 0 in /  0.0 mm
14:52 60.4 °F /  15.8 °C 42.8 °F /  6.0 °C 30.3 in /  1025.6 hPa NNE 5 mph /  8.0 km/h 11 mph /  17.7 km/h 52 % 0 in /  0.0 mm
14:57 60.6 °F /  15.9 °C 43 °F /  6.1 °C 30.3 in /  1025.6 hPa NNE 7 mph /  11.3 km/h 11 mph /  17.7 km/h 52 % 0 in /  0.0 mm
15:02 61 °F /  16.1 °C 43.7 °F /  6.5 °C 30.3 in /  1025.6 hPa NNW 5 mph /  8.0 km/h 11 mph /  17.7 km/h 53 % 0 in /  0.0 mm
15:07 61.2 °F /  16.2 °C 44.8 °F /  7.1 °C 30.3 in /  1025.3 hPa NE 6 mph /  9.7 km/h 10 mph /  16.1 km/h 55 % 0 in /  0.0 mm
15:12 61.3 °F /  16.3 °C 45 °F /  7.2 °C 30.3 in /  1025.3 hPa ENE 4 mph /  6.4 km/h 11 mph /  17.7 km/h 55 % 0 in /  0.0 mm
15:17 61.5 °F /  16.4 °C 44.2 °F /  6.8 °C 30.3 in /  1025.3 hPa East 2 mph /  3.2 km/h 11 mph /  17.7 km/h 53 % 0 in /  0.0 mm
15:22 61.7 °F /  16.5 °C 43.9 °F /  6.6 °C 30.3 in /  1025.3 hPa NE 7 mph /  11.3 km/h 10 mph /  16.1 km/h 52 % 0 in /  0.0 mm
15:27 61.5 °F /  16.4 °C 42.6 °F /  5.9 °C 30.3 in /  1025.3 hPa East 4 mph /  6.4 km/h 11 mph /  17.7 km/h 50 % 0 in /  0.0 mm
15:32 61.5 °F /  16.4 °C 43.7 °F /  6.5 °C 30.3 in /  1025.3 hPa NNW 4 mph /  6.4 km/h 11 mph /  17.7 km/h 52 % 0 in /  0.0 mm
15:37 62.1 °F /  16.7 °C 44.2 °F /  6.8 °C 30.3 in /  1025.3 hPa NE 7 mph /  11.3 km/h 11 mph /  17.7 km/h 52 % 0 in /  0.0 mm
15:42 62.2 °F /  16.8 °C 45.3 °F /  7.4 °C 30.3 in /  1025.3 hPa NNE 2 mph /  3.2 km/h 9 mph /  14.5 km/h 54 % 0 in /  0.0 mm
15:47 62.4 °F /  16.9 °C 44.6 °F /  7.0 °C 30.3 in /  1024.9 hPa East 2 mph /  3.2 km/h 8 mph /  12.9 km/h 52 % 0 in /  0.0 mm
15:52 62.2 °F /  16.8 °C 43.3 °F /  6.3 °C 30.3 in /  1024.9 hPa NE 5 mph /  8.0 km/h 8 mph /  12.9 km/h 50 % 0 in /  0.0 mm
15:57 62.4 °F /  16.9 °C 45.1 °F /  7.3 °C 30.3 in /  1024.9 hPa East 3 mph /  4.8 km/h 10 mph /  16.1 km/h 53 % 0 in /  0.0 mm
16:02 62.8 °F /  17.1 °C 45.3 °F /  7.4 °C 30.3 in /  1024.9 hPa ENE 3 mph /  4.8 km/h 10 mph /  16.1 km/h 53 % 0 in /  0.0 mm
16:07 63 °F /  17.2 °C 44.6 °F /  7.0 °C 30.3 in /  1024.9 hPa NNE 5 mph /  8.0 km/h 9 mph /  14.5 km/h 51 % 0 in /  0.0 mm
16:12 63 °F /  17.2 °C 44.1 °F /  6.7 °C 30.3 in /  1024.9 hPa ENE 3 mph /  4.8 km/h 9 mph /  14.5 km/h 50 % 0 in /  0.0 mm
16:17 63.3 °F /  17.4 °C 45 °F /  7.2 °C 30.3 in /  1024.6 hPa NE 9 mph /  14.5 km/h 10 mph /  16.1 km/h 51 % 0 in /  0.0 mm
16:22 63 °F /  17.2 °C 44.6 °F /  7.0 °C 30.3 in /  1024.6 hPa ENE 4 mph /  6.4 km/h 12 mph /  19.3 km/h 51 % 0 in /  0.0 mm
16:27 63.1 °F /  17.3 °C 44.8 °F /  7.1 °C 30.3 in /  1024.6 hPa NNE 9 mph /  14.5 km/h 12 mph /  19.3 km/h 51 % 0 in /  0.0 mm
16:32 63 °F /  17.2 °C 44.6 °F /  7.0 °C 30.3 in /  1024.6 hPa North 10 mph /  16.1 km/h 12 mph /  19.3 km/h 51 % 0 in /  0.0 mm
16:37 63.3 °F /  17.4 °C 44.4 °F /  6.9 °C 30.3 in /  1024.6 hPa ENE 5 mph /  8.0 km/h 12 mph /  19.3 km/h 50 % 0 in /  0.0 mm
16:42 63.5 °F /  17.5 °C 44.1 °F /  6.7 °C 30.3 in /  1024.6 hPa ENE 10 mph /  16.1 km/h 14 mph /  22.5 km/h 49 % 0 in /  0.0 mm
16:47 63.9 °F /  17.7 °C 44.8 °F /  7.1 °C 30.3 in /  1024.3 hPa NE 5 mph /  8.0 km/h 14 mph /  22.5 km/h 50 % 0 in /  0.0 mm
16:52 63.7 °F /  17.6 °C 43.7 °F /  6.5 °C 30.3 in /  1024.3 hPa NE 12 mph /  19.3 km/h 12 mph /  19.3 km/h 48 % 0 in /  0.0 mm
16:57 63.9 °F /  17.7 °C 43.2 °F /  6.2 °C 30.3 in /  1024.3 hPa NNE 7 mph /  11.3 km/h 15 mph /  24.1 km/h 47 % 0 in /  0.0 mm
17:02 63.7 °F /  17.6 °C 43.7 °F /  6.5 °C 30.3 in /  1024.3 hPa NE 5 mph /  8.0 km/h 15 mph /  24.1 km/h 48 % 0 in /  0.0 mm
17:07 63.9 °F /  17.7 °C 43.7 °F /  6.5 °C 30.3 in /  1024.3 hPa ENE 5 mph /  8.0 km/h 13 mph /  20.9 km/h 48 % 0 in /  0.0 mm
17:12 63.9 °F /  17.7 °C 44.8 °F /  7.1 °C 30.3 in /  1024.3 hPa NNE 9 mph /  14.5 km/h 13 mph /  20.9 km/h 50 % 0 in /  0.0 mm
17:17 63.9 °F /  17.7 °C 44.2 °F /  6.8 °C 30.3 in /  1024.3 hPa NE 8 mph /  12.9 km/h 12 mph /  19.3 km/h 49 % 0 in /  0.0 mm
17:22 64.2 °F /  17.9 °C 45.1 °F /  7.3 °C 30.3 in /  1024.3 hPa ENE 2 mph /  3.2 km/h 12 mph /  19.3 km/h 50 % 0 in /  0.0 mm
17:27 64.2 °F /  17.9 °C 44.6 °F /  7.0 °C 30.3 in /  1024.3 hPa ENE 9 mph /  14.5 km/h 12 mph /  19.3 km/h 49 % 0 in /  0.0 mm
17:32 64.4 °F /  18.0 °C 45.9 °F /  7.7 °C 30.2 in /  1023.9 hPa ENE 4 mph /  6.4 km/h 13 mph /  20.9 km/h 51 % 0 in /  0.0 mm
17:37 64.2 °F /  17.9 °C 45.1 °F /  7.3 °C 30.2 in /  1023.9 hPa NE 9 mph /  14.5 km/h 13 mph /  20.9 km/h 50 % 0 in /  0.0 mm
17:42 64.2 °F /  17.9 °C 45.1 °F /  7.3 °C 30.2 in /  1023.9 hPa East 8 mph /  12.9 km/h 13 mph /  20.9 km/h 50 % 0 in /  0.0 mm
17:47 64.2 °F /  17.9 °C 45.1 °F /  7.3 °C 30.2 in /  1023.9 hPa NE 9 mph /  14.5 km/h 12 mph /  19.3 km/h 50 % 0 in /  0.0 mm
17:52 64 °F /  17.8 °C 45 °F /  7.2 °C 30.2 in /  1023.9 hPa ENE 9 mph /  14.5 km/h 12 mph /  19.3 km/h 50 % 0 in /  0.0 mm
17:57 64 °F /  17.8 °C 45.5 °F /  7.5 °C 30.2 in /  1023.9 hPa NE 8 mph /  12.9 km/h 13 mph /  20.9 km/h 51 % 0 in /  0.0 mm
18:02 64.2 °F /  17.9 °C 45.7 °F /  7.6 °C 30.2 in /  1023.9 hPa NE 3 mph /  4.8 km/h 13 mph /  20.9 km/h 51 % 0 in /  0.0 mm
18:12 64.2 °F /  17.9 °C 45.7 °F /  7.6 °C 30.2 in /  1023.9 hPa NNE 4 mph /  6.4 km/h 11 mph /  17.7 km/h 51 % 0 in /  0.0 mm
18:17 64.2 °F /  17.9 °C 45.7 °F /  7.6 °C 30.2 in /  1023.9 hPa NE 8 mph /  12.9 km/h 11 mph /  17.7 km/h 51 % 0 in /  0.0 mm
18:22 64.2 °F /  17.9 °C 46.2 °F /  7.9 °C 30.2 in /  1023.9 hPa ENE 9 mph /  14.5 km/h 10 mph /  16.1 km/h 52 % 0 in /  0.0 mm
18:27 64.2 °F /  17.9 °C 46.2 °F /  7.9 °C 30.2 in /  1023.9 hPa ENE 7 mph /  11.3 km/h 10 mph /  16.1 km/h 52 % 0 in /  0.0 mm
18:32 64 °F /  17.8 °C 46.6 °F /  8.1 °C 30.2 in /  1023.9 hPa NE 5 mph /  8.0 km/h 10 mph /  16.1 km/h 53 % 0 in /  0.0 mm
18:37 64 °F /  17.8 °C 45.5 °F /  7.5 °C 30.2 in /  1023.9 hPa ENE 3 mph /  4.8 km/h 10 mph /  16.1 km/h 51 % 0 in /  0.0 mm
18:42 64 °F /  17.8 °C 46.6 °F /  8.1 °C 30.2 in /  1023.9 hPa ENE 6 mph /  9.7 km/h 10 mph /  16.1 km/h 53 % 0 in /  0.0 mm
18:47 63.9 °F /  17.7 °C 46.4 °F /  8.0 °C 30.2 in /  1023.9 hPa NE 5 mph /  8.0 km/h 9 mph /  14.5 km/h 53 % 0 in /  0.0 mm
18:52 63.5 °F /  17.5 °C 46 °F /  7.8 °C 30.2 in /  1023.9 hPa NE 8 mph /  12.9 km/h 11 mph /  17.7 km/h 53 % 0 in /  0.0 mm
18:57 63.3 °F /  17.4 °C 45.9 °F /  7.7 °C 30.2 in /  1023.9 hPa ENE 4 mph /  6.4 km/h 12 mph /  19.3 km/h 53 % 0 in /  0.0 mm
19:02 63.3 °F /  17.4 °C 46.4 °F /  8.0 °C 30.2 in /  1023.9 hPa ENE 6 mph /  9.7 km/h 12 mph /  19.3 km/h 54 % 0 in /  0.0 mm
19:07 63.3 °F /  17.4 °C 46.4 °F /  8.0 °C 30.2 in /  1023.9 hPa NE 3 mph /  4.8 km/h 11 mph /  17.7 km/h 54 % 0 in /  0.0 mm
19:12 63 °F /  17.2 °C 45.5 °F /  7.5 °C 30.3 in /  1024.3 hPa East 7 mph /  11.3 km/h 11 mph /  17.7 km/h 53 % 0 in /  0.0 mm
19:22 62.6 °F /  17.0 °C 45.7 °F /  7.6 °C 30.3 in /  1024.3 hPa ENE 5 mph /  8.0 km/h 9 mph /  14.5 km/h 54 % 0 in /  0.0 mm
19:27 62.4 °F /  16.9 °C 45.5 °F /  7.5 °C 30.3 in /  1024.3 hPa ENE 5 mph /  8.0 km/h 9 mph /  14.5 km/h 54 % 0 in /  0.0 mm
19:32 62.2 °F /  16.8 °C 45.9 °F /  7.7 °C 30.3 in /  1024.3 hPa ENE 4 mph /  6.4 km/h 9 mph /  14.5 km/h 55 % 0 in /  0.0 mm
19:37 62.1 °F /  16.7 °C 45.7 °F /  7.6 °C 30.3 in /  1024.3 hPa ENE 5 mph /  8.0 km/h 9 mph /  14.5 km/h 55 % 0 in /  0.0 mm
19:42 61.9 °F /  16.6 °C 45.5 °F /  7.5 °C 30.3 in /  1024.3 hPa NE 2 mph /  3.2 km/h 8 mph /  12.9 km/h 55 % 0 in /  0.0 mm
19:47 61.5 °F /  16.4 °C 45.7 °F /  7.6 °C 30.3 in /  1024.3 hPa ENE 5 mph /  8.0 km/h 8 mph /  12.9 km/h 56 % 0 in /  0.0 mm
19:52 61.2 °F /  16.2 °C 45.3 °F /  7.4 °C 30.3 in /  1024.3 hPa NE 4 mph /  6.4 km/h 8 mph /  12.9 km/h 56 % 0 in /  0.0 mm
19:57 60.8 °F /  16.0 °C 45 °F /  7.2 °C 30.3 in /  1024.3 hPa ENE 3 mph /  4.8 km/h 8 mph /  12.9 km/h 56 % 0 in /  0.0 mm
20:02 60.4 °F /  15.8 °C 45.1 °F /  7.3 °C 30.3 in /  1024.3 hPa NE 3 mph /  4.8 km/h 7 mph /  11.3 km/h 57 % 0 in /  0.0 mm
20:07 60.1 °F /  15.6 °C 45.3 °F /  7.4 °C 30.3 in /  1024.3 hPa NNE 4 mph /  6.4 km/h 7 mph /  11.3 km/h 58 % 0 in /  0.0 mm
20:12 59.5 °F /  15.3 °C 44.8 °F /  7.1 °C 30.3 in /  1024.6 hPa NE 3 mph /  4.8 km/h 7 mph /  11.3 km/h 58 % 0 in /  0.0 mm
20:17 59.2 °F /  15.1 °C 44.8 °F /  7.1 °C 30.3 in /  1024.6 hPa NE 4 mph /  6.4 km/h 7 mph /  11.3 km/h 59 % 0 in /  0.0 mm
20:22 58.8 °F /  14.9 °C 45 °F /  7.2 °C 30.3 in /  1024.6 hPa NE 4 mph /  6.4 km/h 7 mph /  11.3 km/h 60 % 0 in /  0.0 mm
20:27 58.6 °F /  14.8 °C 44.8 °F /  7.1 °C 30.3 in /  1024.6 hPa NNE 5 mph /  8.0 km/h 6 mph /  9.7 km/h 60 % 0 in /  0.0 mm
20:37 58.5 °F /  14.7 °C 44.6 °F /  7.0 °C 30.3 in /  1024.6 hPa NE 6 mph /  9.7 km/h 8 mph /  12.9 km/h 60 % 0 in /  0.0 mm
20:42 58.3 °F /  14.6 °C 44.4 °F /  6.9 °C 30.3 in /  1024.9 hPa NE 5 mph /  8.0 km/h 8 mph /  12.9 km/h 60 % 0 in /  0.0 mm
20:47 57.9 °F /  14.4 °C 44.6 °F /  7.0 °C 30.3 in /  1024.6 hPa NE 4 mph /  6.4 km/h 8 mph /  12.9 km/h 61 % 0 in /  0.0 mm
20:52 57.7 °F /  14.3 °C 44.8 °F /  7.1 °C 30.3 in /  1024.6 hPa NE 4 mph /  6.4 km/h 7 mph /  11.3 km/h 62 % 0 in /  0.0 mm
20:57 57.6 °F /  14.2 °C 45.1 °F /  7.3 °C 30.3 in /  1024.9 hPa NNE 6 mph /  9.7 km/h 7 mph /  11.3 km/h 63 % 0 in /  0.0 mm
21:02 57.4 °F /  14.1 °C 45.3 °F /  7.4 °C 30.3 in /  1024.9 hPa NNE 7 mph /  11.3 km/h 9 mph /  14.5 km/h 64 % 0 in /  0.0 mm
21:07 56.7 °F /  13.7 °C 45.5 °F /  7.5 °C 30.3 in /  1024.9 hPa NE 2 mph /  3.2 km/h 9 mph /  14.5 km/h 66 % 0 in /  0.0 mm
21:12 55.9 °F /  13.3 °C 45.1 °F /  7.3 °C 30.3 in /  1024.9 hPa NNW 3 mph /  4.8 km/h 9 mph /  14.5 km/h 67 % 0 in /  0.0 mm
21:17 55.6 °F /  13.1 °C 45.1 °F /  7.3 °C 30.3 in /  1024.9 hPa NNW 2 mph /  3.2 km/h 7 mph /  11.3 km/h 68 % 0 in /  0.0 mm
21:22 55.2 °F /  12.9 °C 45.1 °F /  7.3 °C 30.3 in /  1024.9 hPa North 2 mph /  3.2 km/h 6 mph /  9.7 km/h 69 % 0 in /  0.0 mm
21:27 55 °F /  12.8 °C 45.1 °F /  7.3 °C 30.3 in /  1024.9 hPa NNW 3 mph /  4.8 km/h 6 mph /  9.7 km/h 69 % 0 in /  0.0 mm
21:32 54.9 °F /  12.7 °C 45 °F /  7.2 °C 30.3 in /  1024.9 hPa NNW 2 mph /  3.2 km/h 5 mph /  8.0 km/h 69 % 0 in /  0.0 mm
21:37 54.3 °F /  12.4 °C 44.8 °F /  7.1 °C 30.3 in /  1024.9 hPa North 4 mph /  6.4 km/h 5 mph /  8.0 km/h 70 % 0 in /  0.0 mm
21:42 54.1 °F /  12.3 °C 44.6 °F /  7.0 °C 30.3 in /  1024.9 hPa NNE 3 mph /  4.8 km/h 5 mph /  8.0 km/h 70 % 0 in /  0.0 mm
21:47 54 °F /  12.2 °C 44.8 °F /  7.1 °C 30.3 in /  1024.9 hPa North 4 mph /  6.4 km/h 5 mph /  8.0 km/h 71 % 0 in /  0.0 mm
21:52 53.4 °F /  11.9 °C 44.2 °F /  6.8 °C 30.3 in /  1024.9 hPa NNW 2 mph /  3.2 km/h 5 mph /  8.0 km/h 71 % 0 in /  0.0 mm
21:57 53.2 °F /  11.8 °C 44.4 °F /  6.9 °C 30.3 in /  1024.9 hPa NNE 2 mph /  3.2 km/h 5 mph /  8.0 km/h 72 % 0 in /  0.0 mm
22:02 53.1 °F /  11.7 °C 44.6 °F /  7.0 °C 30.3 in /  1024.9 hPa North 3 mph /  4.8 km/h 5 mph /  8.0 km/h 73 % 0 in /  0.0 mm
22:07 53.2 °F /  11.8 °C 44.8 °F /  7.1 °C 30.3 in /  1024.9 hPa NNW 3 mph /  4.8 km/h 4 mph /  6.4 km/h 73 % 0 in /  0.0 mm
22:12 53.2 °F /  11.8 °C 44.8 °F /  7.1 °C 30.3 in /  1024.9 hPa NW 3 mph /  4.8 km/h 4 mph /  6.4 km/h 73 % 0 in /  0.0 mm
22:17 53.2 °F /  11.8 °C 44.4 °F /  6.9 °C 30.3 in /  1024.9 hPa North 2 mph /  3.2 km/h 5 mph /  8.0 km/h 72 % 0 in /  0.0 mm
22:22 53.2 °F /  11.8 °C 44.4 °F /  6.9 °C 30.3 in /  1024.9 hPa Calm   5 mph /  8.0 km/h 72 % 0 in /  0.0 mm
22:27 52.9 °F /  11.6 °C 44.1 °F /  6.7 °C 30.3 in /  1024.9 hPa NE 1 mph /  1.6 km/h 6 mph /  9.7 km/h 72 % 0 in /  0.0 mm
22:32 52.7 °F /  11.5 °C 44.2 °F /  6.8 °C 30.3 in /  1025.3 hPa North 1 mph /  1.6 km/h 6 mph /  9.7 km/h 73 % 0 in /  0.0 mm
22:37 52.5 °F /  11.4 °C 44.1 °F /  6.7 °C 30.3 in /  1025.3 hPa Calm   6 mph /  9.7 km/h 73 % 0 in /  0.0 mm
22:42 52.9 °F /  11.6 °C 44.4 °F /  6.9 °C 30.3 in /  1025.3 hPa NNE 5 mph /  8.0 km/h 6 mph /  9.7 km/h 73 % 0 in /  0.0 mm
22:47 52.9 °F /  11.6 °C 44.1 °F /  6.7 °C 30.3 in /  1025.3 hPa NNE 3 mph /  4.8 km/h 6 mph /  9.7 km/h 72 % 0 in /  0.0 mm
22:52 52.9 °F /  11.6 °C 44.1 °F /  6.7 °C 30.3 in /  1025.3 hPa NNE 4 mph /  6.4 km/h 6 mph /  9.7 km/h 72 % 0 in /  0.0 mm
22:57 52.7 °F /  11.5 °C 44.2 °F /  6.8 °C 30.3 in /  1025.3 hPa NNE 2 mph /  3.2 km/h 6 mph /  9.7 km/h 73 % 0 in /  0.0 mm
23:02 52.5 °F /  11.4 °C 44.1 °F /  6.7 °C 30.3 in /  1025.3 hPa NNE 3 mph /  4.8 km/h 6 mph /  9.7 km/h 73 % 0 in /  0.0 mm
23:07 52.5 °F /  11.4 °C 44.1 °F /  6.7 °C 30.3 in /  1025.3 hPa NNE 2 mph /  3.2 km/h 8 mph /  12.9 km/h 73 % 0 in /  0.0 mm
23:12 52.3 °F /  11.3 °C 43.9 °F /  6.6 °C 30.3 in /  1025.3 hPa North 2 mph /  3.2 km/h 8 mph /  12.9 km/h 73 % 0 in /  0.0 mm
23:17 52.2 °F /  11.2 °C 44.1 °F /  6.7 °C 30.3 in /  1025.3 hPa NNE 2 mph /  3.2 km/h 8 mph /  12.9 km/h 74 % 0 in /  0.0 mm
23:22 52 °F /  11.1 °C 43.9 °F /  6.6 °C 30.3 in /  1025.3 hPa NE 2 mph /  3.2 km/h 4 mph /  6.4 km/h 74 % 0 in /  0.0 mm
23:27 52 °F /  11.1 °C 43.9 °F /  6.6 °C 30.3 in /  1025.3 hPa NNE 4 mph /  6.4 km/h 5 mph /  8.0 km/h 74 % 0 in /  0.0 mm
23:32 52 °F /  11.1 °C 43.9 °F /  6.6 °C 30.3 in /  1025.3 hPa NE 3 mph /  4.8 km/h 5 mph /  8.0 km/h 74 % 0 in /  0.0 mm
23:37 51.8 °F /  11.0 °C 43.7 °F /  6.5 °C 30.3 in /  1025.3 hPa NE 4 mph /  6.4 km/h 5 mph /  8.0 km/h 74 % 0 in /  0.0 mm
23:42 52.2 °F /  11.2 °C 44.1 °F /  6.7 °C 30.3 in /  1025.3 hPa NNE 4 mph /  6.4 km/h 7 mph /  11.3 km/h 74 % 0 in /  0.0 mm
23:47 52 °F /  11.1 °C 43.9 °F /  6.6 °C 30.3 in /  1025.3 hPa North 2 mph /  3.2 km/h 8 mph /  12.9 km/h 74 % 0 in /  0.0 mm
23:52 51.6 °F /  10.9 °C 43.5 °F /  6.4 °C 30.3 in /  1024.9 hPa Calm   8 mph /  12.9 km/h 74 % 0 in /  0.0 mm
23:57 51.4 °F /  10.8 °C 43.7 °F /  6.5 °C 30.3 in /  1024.9 hPa NNE 1 mph /  1.6 km/h 6 mph /  9.7 km/h 75 % 0 in /  0.0 mm
Meteo18
Compliments of Weather Underground - 4 mb

Script developed by  Jim McMurry - jmcmurry@mwt.net Adapted for the template by  Wim van der Kuil - Leuven-Template.eu

You find our weather info also at:

European Weather Network

Weather Underground

Equipment we use:

Weather-station
Davis Vue

Weather-program
Meteohub

Weather-server
Raspberry PI 2 B+

Provider
1 and 1

Davis Vue

Meteohub

Raspberry PI 2 B+

1 and 1